Time;durP1;ratioP1;P1;durP2;ratioP2;P2;SDS_P1;SDS_P2;PMS_P1;PMS_P2;Temp;Humidity;BMP_temperature;BMP_pressure;BME280_temperature;BME280_humidity;BME280_pressure;Samples;Min_cycle;Max_cycle;Signal;HPM_P1;HPM_P2
2022/07/24 00:01:49;;;;;;;46.67;44.53;;;26.10;60.30;;;;;;5020168;28;20182;-85
2022/07/24 00:04:14;;;;;;;44.97;43.08;;;26.10;60.90;;;;;;5016234;28;20212;-84
2022/07/24 00:06:40;;;;;;;44.80;42.88;;;26.10;60.10;;;;;;5013818;28;20225;-86
2022/07/24 00:09:06;;;;;;;44.90;43.10;;;26.10;60.30;;;;;;4997222;28;20186;-87
2022/07/24 00:11:32;;;;;;;45.95;44.05;;;26.20;59.80;;;;;;5015728;28;20182;-86
2022/07/24 00:13:58;;;;;;;46.33;44.42;;;26.20;59.70;;;;;;5003003;28;20193;-85
2022/07/24 00:16:24;;;;;;;46.45;44.42;;;26.20;60.70;;;;;;5017849;28;20290;-85
2022/07/24 00:18:50;;;;;;;44.00;42.20;;;26.00;62.00;;;;;;4995888;28;20253;-84
2022/07/24 00:21:16;;;;;;;44.50;42.63;;;26.00;62.10;;;;;;5020677;28;20197;-85
2022/07/24 00:23:42;;;;;;;46.50;44.60;;;25.90;61.60;;;;;;4999276;28;20234;-85
2022/07/24 00:26:09;;;;;;;44.72;42.88;;;25.80;62.30;;;;;;5011556;28;20243;-86
2022/07/24 00:28:35;;;;;;;45.13;43.22;;;25.90;61.90;;;;;;5016613;28;20177;-85
2022/07/24 00:31:01;;;;;;;45.22;43.25;;;25.90;61.70;;;;;;5014666;28;20188;-85
2022/07/24 00:33:27;;;;;;;46.85;44.60;;;26.00;62.10;;;;;;5016244;28;20248;-85
2022/07/24 00:35:53;;;;;;;45.90;43.97;;;26.00;62.20;;;;;;5008927;28;20736;-87
2022/07/24 00:38:18;;;;;;;45.53;43.58;;;25.90;61.60;;;;;;5032401;28;20245;-88
2022/07/24 00:40:44;;;;;;;44.80;43.00;;;25.90;61.60;;;;;;5017122;28;20186;-85
2022/07/24 00:43:10;;;;;;;45.58;43.60;;;25.90;61.70;;;;;;5007200;28;20208;-85
2022/07/24 00:45:36;;;;;;;45.10;43.10;;;25.90;61.40;;;;;;5005129;28;20213;-85
2022/07/24 00:48:02;;;;;;;46.30;44.38;;;25.90;60.70;;;;;;4996927;28;20206;-85
2022/07/24 00:50:28;;;;;;;43.90;42.10;;;25.90;61.20;;;;;;5005116;28;20189;-84
2022/07/24 00:52:55;;;;;;;44.65;42.72;;;25.80;61.70;;;;;;5015207;28;20565;-84
2022/07/24 00:55:21;;;;;;;43.88;42.08;;;25.80;61.90;;;;;;5011802;28;20285;-86
2022/07/24 00:57:48;;;;;;;44.45;42.50;;;25.80;62.60;;;;;;5021401;28;20194;-85
2022/07/24 01:00:16;;;;;;;44.92;43.13;;;25.80;62.60;;;;;;4994894;28;20191;-85
2022/07/24 01:02:42;;;;;;;45.03;43.22;;;25.70;62.80;;;;;;5022661;28;20197;-85
2022/07/24 01:05:12;;;;;;;44.17;42.38;;;25.70;63.40;;;;;;5023509;28;20193;-84
2022/07/24 01:07:38;;;;;;;44.05;42.15;;;25.70;62.90;;;;;;5021768;28;20210;-86
2022/07/24 01:10:06;;;;;;;43.53;41.72;;;25.70;63.20;;;;;;5016243;28;20194;-86
2022/07/24 01:12:34;;;;;;;42.13;40.42;;;25.60;63.50;;;;;;5004917;28;20201;-87
2022/07/24 01:14:59;;;;;;;43.33;41.63;;;25.60;63.50;;;;;;5017981;28;20222;-86
2022/07/24 01:17:30;;;;;;;43.38;41.47;;;25.50;64.20;;;;;;5006974;28;20241;-85
2022/07/24 01:19:56;;;;;;;43.42;41.63;;;25.30;64.50;;;;;;5016050;28;20197;-86
2022/07/24 01:22:22;;;;;;;44.80;42.92;;;25.30;64.40;;;;;;5018950;28;20261;-85
2022/07/24 01:24:48;;;;;;;46.33;44.35;;;25.20;65.00;;;;;;5003445;28;20232;-86
2022/07/24 01:27:14;;;;;;;48.35;46.28;;;25.20;65.00;;;;;;5013587;28;20210;-86
2022/07/24 01:29:40;;;;;;;47.85;45.75;;;25.10;65.40;;;;;;5019271;28;20186;-84
2022/07/24 01:32:06;;;;;;;47.75;45.60;;;25.10;65.40;;;;;;5021514;28;20217;-85
2022/07/24 01:34:32;;;;;;;46.85;44.92;;;25.10;65.00;;;;;;5018880;28;20672;-85
2022/07/24 01:36:57;;;;;;;50.83;48.63;;;25.00;65.80;;;;;;5020076;28;20213;-85
2022/07/24 01:39:23;;;;;;;60.85;58.50;;;24.80;66.90;;;;;;5021543;28;20182;-86
2022/07/24 01:41:49;;;;;;;61.70;59.30;;;24.60;67.50;;;;;;5018684;28;20190;-86
2022/07/24 01:44:15;;;;;;;67.18;64.55;;;24.60;67.40;;;;;;4994975;28;20225;-86
2022/07/24 01:46:40;;;;;;;69.38;66.78;;;24.60;67.30;;;;;;5019649;28;20221;-84
2022/07/24 01:49:06;;;;;;;70.03;67.45;;;24.60;67.50;;;;;;5013440;28;20173;-85
2022/07/24 01:51:32;;;;;;;68.65;66.05;;;24.50;67.70;;;;;;5013967;28;20221;-86
2022/07/24 01:53:57;;;;;;;67.30;64.82;;;24.60;67.30;;;;;;4976107;28;20198;-85
2022/07/24 01:56:23;;;;;;;64.53;62.08;;;24.60;67.00;;;;;;5011443;28;20282;-85
2022/07/24 01:58:49;;;;;;;60.70;58.40;;;24.60;66.90;;;;;;5029879;28;20221;-84
2022/07/24 02:01:14;;;;;;;60.10;57.75;;;24.60;67.40;;;;;;5009621;28;20225;-86
2022/07/24 02:03:40;;;;;;;61.10;58.70;;;24.60;67.00;;;;;;5006591;28;20213;-86
2022/07/24 02:06:06;;;;;;;69.15;66.60;;;24.50;67.50;;;;;;5010689;28;20608;-85
2022/07/24 02:08:31;;;;;;;70.93;68.38;;;24.50;67.40;;;;;;4998916;28;20534;-86
2022/07/24 02:10:57;;;;;;;74.05;71.25;;;24.50;67.50;;;;;;5010427;28;20679;-84
2022/07/24 02:13:25;;;;;;;67.30;64.75;;;24.40;67.90;;;;;;5018068;28;20193;-85
2022/07/24 02:15:51;;;;;;;69.45;66.85;;;24.50;68.10;;;;;;4996241;28;20198;-85
2022/07/24 02:18:17;;;;;;;70.63;68.05;;;24.50;68.10;;;;;;5011196;28;20213;-85
2022/07/24 02:20:43;;;;;;;69.60;66.90;;;24.50;67.40;;;;;;5009345;28;20198;-86
2022/07/24 02:23:08;;;;;;;67.35;64.75;;;24.40;67.60;;;;;;5008347;28;20222;-86
2022/07/24 02:25:34;;;;;;;65.88;63.38;;;24.50;67.30;;;;;;5011615;28;20600;-85
2022/07/24 02:27:59;;;;;;;67.75;64.95;;;24.60;67.20;;;;;;4991465;28;20225;-88
2022/07/24 02:30:25;;;;;;;72.25;69.32;;;24.50;67.20;;;;;;5012092;28;20231;-86
2022/07/24 02:32:51;;;;;;;79.47;76.68;;;24.40;67.40;;;;;;5018349;28;20562;-86
2022/07/24 02:35:17;;;;;;;84.38;81.43;;;24.30;67.80;;;;;;5007338;28;20194;-84
2022/07/24 02:37:44;;;;;;;83.05;79.82;;;24.30;67.90;;;;;;5015509;28;20595;-86
2022/07/24 02:40:11;;;;;;;86.38;83.28;;;24.30;67.60;;;;;;5010355;28;20229;-86
2022/07/24 02:42:37;;;;;;;79.68;76.53;;;24.30;67.70;;;;;;5011361;28;20193;-86
2022/07/24 02:45:05;;;;;;;73.70;71.00;;;24.30;67.40;;;;;;5008860;28;20292;-86
2022/07/24 02:47:31;;;;;;;71.65;68.82;;;24.40;67.30;;;;;;5013849;28;20236;-86
2022/07/24 02:49:57;;;;;;;67.32;64.68;;;24.40;67.00;;;;;;5011095;28;20186;-86
2022/07/24 02:52:22;;;;;;;62.58;60.33;;;24.40;67.00;;;;;;5005731;28;20213;-86
2022/07/24 02:54:48;;;;;;;74.75;71.90;;;24.40;66.80;;;;;;5009077;28;20566;-86
2022/07/24 02:57:14;;;;;;;92.18;88.68;;;24.30;67.30;;;;;;5015444;28;20638;-85
2022/07/24 02:59:39;;;;;;;94.00;90.72;;;23.90;69.10;;;;;;5009417;28;20220;-85
2022/07/24 03:02:05;;;;;;;98.80;95.35;;;23.90;69.30;;;;;;5010363;28;20281;-85
2022/07/24 03:04:31;;;;;;;99.30;95.88;;;23.90;69.40;;;;;;4990561;28;20241;-86
2022/07/24 03:06:57;;;;;;;102.78;99.25;;;23.90;69.30;;;;;;5012154;28;20210;-84
2022/07/24 03:09:23;;;;;;;100.32;96.93;;;23.90;69.40;;;;;;4994829;28;20228;-86
2022/07/24 03:11:48;;;;;;;107.63;104.07;;;23.70;70.50;;;;;;4993933;28;20190;-85
2022/07/24 03:14:14;;;;;;;107.22;103.63;;;23.70;70.10;;;;;;5009813;28;20240;-86
2022/07/24 03:16:40;;;;;;;102.57;99.13;;;23.70;70.20;;;;;;4998120;28;20208;-85
2022/07/24 03:19:05;;;;;;;103.22;99.75;;;23.70;70.20;;;;;;4995864;28;20201;-86
2022/07/24 03:21:31;;;;;;;109.60;105.90;;;23.70;70.80;;;;;;5009519;28;20236;-85
2022/07/24 03:23:57;;;;;;;109.60;105.80;;;23.70;70.60;;;;;;5004382;28;20365;-82
2022/07/24 03:26:22;;;;;;;104.07;100.47;;;23.60;71.00;;;;;;5025376;28;20198;-83
2022/07/24 03:28:48;;;;;;;108.38;104.78;;;23.50;70.90;;;;;;5025464;28;20548;-86
2022/07/24 03:31:14;;;;;;;102.03;98.53;;;23.50;71.50;;;;;;5007143;28;20182;-85
2022/07/24 03:33:42;;;;;;;102.00;98.63;;;23.50;71.20;;;;;;5011116;28;20673;-85
2022/07/24 03:36:08;;;;;;;99.97;96.47;;;23.50;71.90;;;;;;5014120;28;20198;-86
2022/07/24 03:38:34;;;;;;;105.38;101.68;;;23.60;70.60;;;;;;5013389;28;20193;-85
2022/07/24 03:41:00;;;;;;;101.53;97.95;;;23.60;70.20;;;;;;5006241;28;20185;-85
2022/07/24 03:43:25;;;;;;;103.10;99.60;;;23.60;70.10;;;;;;5012223;28;20221;-86
2022/07/24 03:45:51;;;;;;;103.78;100.28;;;23.50;70.20;;;;;;5007780;28;20198;-85
2022/07/24 03:48:17;;;;;;;103.40;99.90;;;23.50;70.70;;;;;;5007051;28;20183;-85
2022/07/24 03:50:42;;;;;;;101.15;97.55;;;23.60;70.20;;;;;;5011837;28;20239;-86
2022/07/24 03:53:08;;;;;;;103.95;100.45;;;23.40;70.50;;;;;;5000878;28;20937;-85
2022/07/24 03:55:34;;;;;;;98.47;94.88;;;23.30;70.70;;;;;;4991766;28;20193;-86
2022/07/24 03:58:00;;;;;;;101.00;97.50;;;23.30;71.20;;;;;;5015432;28;20206;-86
2022/07/24 04:00:25;;;;;;;98.20;94.80;;;23.40;70.80;;;;;;5013791;28;20646;-86
2022/07/24 04:02:51;;;;;;;105.95;102.25;;;23.40;70.70;;;;;;4999828;28;20209;-86
2022/07/24 04:05:17;;;;;;;99.57;96.10;;;23.40;70.50;;;;;;5007471;28;20241;-85
2022/07/24 04:07:42;;;;;;;101.38;97.57;;;23.40;70.70;;;;;;5009176;28;20202;-86
2022/07/24 04:10:09;;;;;;;102.97;99.38;;;23.30;70.70;;;;;;5009551;28;20367;-85
2022/07/24 04:12:35;;;;;;;95.65;92.35;;;23.30;70.90;;;;;;4992454;28;20297;-85
2022/07/24 04:15:01;;;;;;;99.38;95.97;;;23.40;70.70;;;;;;5005942;28;20862;-85
2022/07/24 04:17:26;;;;;;;103.75;99.72;;;23.40;70.70;;;;;;5004360;28;20233;-85
2022/07/24 04:19:52;;;;;;;100.30;96.68;;;23.40;70.50;;;;;;4985587;28;20194;-86
2022/07/24 04:22:17;;;;;;;100.13;96.50;;;23.40;70.30;;;;;;5008617;28;20205;-86
2022/07/24 04:24:43;;;;;;;102.82;98.97;;;23.40;70.10;;;;;;5008020;28;20217;-84
2022/07/24 04:27:09;;;;;;;99.57;96.07;;;23.30;70.60;;;;;;4997499;28;20213;-86
2022/07/24 04:29:35;;;;;;;97.60;94.10;;;23.30;71.40;;;;;;5009101;28;20197;-86
2022/07/24 04:32:00;;;;;;;97.78;94.28;;;23.20;71.90;;;;;;5009421;28;20194;-86
2022/07/24 04:34:26;;;;;;;97.15;93.65;;;23.10;71.80;;;;;;4992736;28;20654;-86
2022/07/24 04:36:51;;;;;;;98.45;95.05;;;23.20;71.40;;;;;;5013797;28;20281;-85
2022/07/24 04:39:17;;;;;;;100.57;97.07;;;23.20;71.10;;;;;;4995825;28;20197;-85
2022/07/24 04:41:43;;;;;;;102.07;98.45;;;23.00;72.20;;;;;;5008622;28;20186;-87
2022/07/24 04:44:09;;;;;;;101.57;97.88;;;23.00;72.40;;;;;;5012571;28;20213;-84
2022/07/24 04:46:35;;;;;;;96.20;92.70;;;23.00;72.70;;;;;;5017451;28;20241;-85
2022/07/24 04:49:00;;;;;;;94.63;90.93;;;22.90;73.00;;;;;;5013647;28;20206;-85
2022/07/24 04:51:26;;;;;;;96.00;92.45;;;23.00;73.10;;;;;;5015100;28;20214;-84
2022/07/24 04:53:55;;;;;;;98.03;94.45;;;23.00;73.00;;;;;;5014088;28;20196;-85
2022/07/24 04:56:21;;;;;;;101.13;97.53;;;23.10;73.00;;;;;;5010434;28;20198;-84
2022/07/24 04:58:47;;;;;;;93.25;89.93;;;23.10;72.90;;;;;;5021191;28;20755;-84
2022/07/24 05:01:13;;;;;;;96.13;92.63;;;23.20;72.50;;;;;;5007772;28;20198;-85
2022/07/24 05:03:39;;;;;;;97.63;94.03;;;23.20;72.60;;;;;;5015091;28;20240;-85
2022/07/24 05:06:04;;;;;;;100.60;97.00;;;23.20;72.50;;;;;;5008275;28;20645;-85
2022/07/24 05:08:30;;;;;;;98.00;94.00;;;23.20;72.30;;;;;;5011660;28;20665;-85
2022/07/24 05:10:56;;;;;;;98.85;95.07;;;23.30;72.20;;;;;;5012871;28;20209;-85
2022/07/24 05:13:22;;;;;;;96.65;93.25;;;23.40;72.00;;;;;;5016206;28;20198;-85
2022/07/24 05:15:47;;;;;;;102.03;98.32;;;23.40;72.20;;;;;;5015000;28;20201;-86
2022/07/24 05:18:13;;;;;;;102.25;98.75;;;23.40;72.00;;;;;;5007172;28;20241;-85
2022/07/24 05:20:39;;;;;;;101.85;98.07;;;23.40;72.10;;;;;;5015092;28;20322;-86
2022/07/24 05:23:05;;;;;;;99.38;95.93;;;23.40;71.90;;;;;;5013538;28;20689;-85
2022/07/24 05:25:30;;;;;;;100.25;96.55;;;23.50;72.20;;;;;;5009558;28;20178;-85
2022/07/24 05:27:56;;;;;;;99.40;95.70;;;23.50;72.00;;;;;;5018888;28;20225;-86
2022/07/24 05:30:21;;;;;;;97.47;94.03;;;23.50;72.40;;;;;;5025386;28;20185;-84
2022/07/24 05:32:47;;;;;;;98.00;94.50;;;23.50;72.30;;;;;;4997388;28;20200;-86
2022/07/24 05:35:13;;;;;;;102.90;99.22;;;23.50;72.50;;;;;;4999208;28;20200;-84
2022/07/24 05:37:39;;;;;;;96.70;93.22;;;23.50;73.20;;;;;;5016095;28;20279;-85
2022/07/24 05:40:05;;;;;;;94.22;90.55;;;23.10;74.40;;;;;;5020960;28;20181;-85
2022/07/24 05:42:31;;;;;;;112.13;108.18;;;23.00;75.80;;;;;;5023754;28;20186;-84
2022/07/24 05:44:57;;;;;;;104.53;100.75;;;22.70;77.00;;;;;;5012508;28;20209;-85
2022/07/24 05:47:23;;;;;;;113.68;109.45;;;22.70;78.20;;;;;;5015141;28;20337;-84
2022/07/24 05:49:48;;;;;;;113.05;109.20;;;22.70;78.80;;;;;;5005587;28;20692;-85
2022/07/24 05:52:14;;;;;;;117.10;113.00;;;22.90;77.90;;;;;;5022482;28;20224;-84
2022/07/24 05:54:40;;;;;;;119.30;115.00;;;23.00;76.70;;;;;;5005753;28;20286;-86
2022/07/24 05:57:06;;;;;;;94.80;91.45;;;23.10;76.00;;;;;;5015032;28;20359;-85
2022/07/24 05:59:31;;;;;;;98.00;94.45;;;23.00;75.20;;;;;;5015038;28;20277;-85
2022/07/24 06:01:59;;;;;;;91.95;88.55;;;23.10;74.80;;;;;;5013962;28;20590;-86
2022/07/24 06:04:25;;;;;;;86.25;83.05;;;23.20;74.50;;;;;;4995972;28;20226;-85
2022/07/24 06:06:51;;;;;;;90.45;87.13;;;23.20;72.20;;;;;;5012169;28;20232;-85
2022/07/24 06:09:16;;;;;;;91.82;88.53;;;23.30;71.60;;;;;;5019322;28;20249;-85
2022/07/24 06:11:42;;;;;;;97.55;94.22;;;23.40;71.70;;;;;;5016113;28;20193;-84
2022/07/24 06:14:07;;;;;;;98.07;94.78;;;23.50;67.70;;;;;;5029740;28;20469;-86
2022/07/24 06:16:33;;;;;;;97.55;94.20;;;23.50;67.80;;;;;;5015885;28;20217;-84
2022/07/24 06:18:59;;;;;;;95.72;92.22;;;23.70;67.80;;;;;;4990006;28;20216;-85
2022/07/24 06:21:25;;;;;;;97.55;94.15;;;23.70;68.30;;;;;;5025481;28;20193;-85
2022/07/24 06:23:50;;;;;;;105.57;101.88;;;23.90;67.10;;;;;;5019303;28;20210;-86
2022/07/24 06:26:16;;;;;;;102.57;98.97;;;23.80;67.60;;;;;;5016465;28;20241;-85
2022/07/24 06:28:42;;;;;;;86.50;83.35;;;23.90;66.90;;;;;;4995785;28;20276;-85
2022/07/24 06:31:07;;;;;;;44.33;42.42;;;24.00;66.10;;;;;;5020548;28;20182;-85
2022/07/24 06:33:33;;;;;;;46.20;44.22;;;24.00;63.20;;;;;;5015843;28;20186;-86
2022/07/24 06:35:59;;;;;;;45.33;43.40;;;24.20;63.00;;;;;;5005864;28;20205;-85
2022/07/24 06:38:25;;;;;;;43.40;41.50;;;24.10;62.50;;;;;;5022396;28;20182;-85
2022/07/24 06:40:51;;;;;;;42.60;40.70;;;24.30;62.10;;;;;;5008214;28;20190;-85
2022/07/24 06:43:16;;;;;;;42.70;40.70;;;24.30;61.30;;;;;;5017884;28;20249;-86
2022/07/24 06:45:43;;;;;;;50.08;48.03;;;24.30;61.60;;;;;;4994244;28;20202;-85
2022/07/24 06:48:08;;;;;;;47.10;45.15;;;24.10;62.00;;;;;;5003276;28;20193;-86
2022/07/24 06:50:34;;;;;;;48.35;46.08;;;24.10;61.30;;;;;;5007558;28;20711;-86
2022/07/24 06:53:00;;;;;;;46.78;44.78;;;24.10;61.00;;;;;;5016619;28;20205;-85
2022/07/24 06:55:26;;;;;;;50.35;48.20;;;24.20;60.60;;;;;;5013912;28;20189;-84
2022/07/24 06:57:52;;;;;;;75.50;72.55;;;24.30;61.50;;;;;;5034240;28;20232;-87
2022/07/24 07:00:18;;;;;;;73.05;70.43;;;24.20;63.00;;;;;;5034102;28;20192;-85
2022/07/24 07:02:45;;;;;;;53.42;51.25;;;24.20;63.00;;;;;;5017579;28;20185;-86
2022/07/24 07:05:11;;;;;;;49.97;47.92;;;24.40;62.00;;;;;;5017217;28;20206;-85
2022/07/24 07:07:38;;;;;;;53.38;51.15;;;24.60;61.50;;;;;;5008857;28;20368;-85
2022/07/24 07:10:05;;;;;;;51.40;49.38;;;24.80;62.60;;;;;;5011712;28;20181;-84
2022/07/24 07:12:31;;;;;;;50.25;48.20;;;24.90;62.40;;;;;;5015024;28;20240;-85
2022/07/24 07:14:58;;;;;;;46.35;44.40;;;25.10;61.50;;;;;;5018954;28;20194;-86
2022/07/24 07:17:24;;;;;;;45.20;43.33;;;25.10;60.70;;;;;;5010101;28;20210;-86
2022/07/24 07:19:49;;;;;;;44.60;42.67;;;25.10;60.30;;;;;;5011613;28;20870;-85
2022/07/24 07:22:15;;;;;;;46.33;44.55;;;25.10;59.20;;;;;;4994020;28;20265;-86
2022/07/24 07:24:41;;;;;;;44.65;42.85;;;25.10;60.00;;;;;;5004812;28;20300;-87
2022/07/24 07:27:06;;;;;;;43.78;41.80;;;25.10;59.90;;;;;;5001577;28;20214;-88
2022/07/24 07:29:32;;;;;;;43.25;41.35;;;25.20;59.50;;;;;;5016037;28;20279;-85
2022/07/24 07:31:58;;;;;;;44.42;42.53;;;25.30;59.50;;;;;;5010488;28;20201;-86
2022/07/24 07:34:23;;;;;;;43.53;41.63;;;25.30;60.40;;;;;;5010790;28;20189;-86
2022/07/24 07:36:49;;;;;;;44.67;42.67;;;25.50;58.90;;;;;;4994900;28;20218;-87
2022/07/24 07:39:15;;;;;;;42.38;40.55;;;25.50;59.40;;;;;;5020630;28;20197;-85
2022/07/24 07:41:40;;;;;;;42.63;40.83;;;25.30;58.70;;;;;;5015557;28;20254;-86
2022/07/24 07:44:06;;;;;;;41.85;40.05;;;25.30;58.40;;;;;;5006281;28;20626;-86
2022/07/24 07:46:32;;;;;;;42.55;40.67;;;25.30;59.00;;;;;;5014154;28;20210;-86
2022/07/24 07:48:57;;;;;;;46.05;44.22;;;25.50;57.60;;;;;;5011533;28;20553;-86
2022/07/24 07:51:23;;;;;;;46.67;44.88;;;25.70;56.80;;;;;;5009614;28;20193;-86
2022/07/24 07:53:49;;;;;;;49.50;47.40;;;25.80;57.20;;;;;;5000088;28;20238;-86
2022/07/24 07:56:15;;;;;;;50.40;48.30;;;25.90;56.70;;;;;;5007022;28;20209;-85
2022/07/24 07:58:41;;;;;;;49.38;47.38;;;26.00;57.10;;;;;;5016391;28;20668;-86
2022/07/24 08:01:06;;;;;;;47.30;45.35;;;26.00;57.10;;;;;;5002631;28;20257;-85
2022/07/24 08:03:32;;;;;;;49.22;47.20;;;25.90;55.90;;;;;;5016636;28;20229;-86
2022/07/24 08:06:01;;;;;;;52.83;50.70;;;26.10;56.00;;;;;;5019728;28;20214;-86
2022/07/24 08:08:26;;;;;;;52.83;50.60;;;26.20;55.30;;;;;;5007023;28;20201;-85
2022/07/24 08:10:52;;;;;;;51.30;49.08;;;26.10;54.40;;;;;;5023215;28;20197;-86
2022/07/24 08:13:19;;;;;;;51.38;49.28;;;26.10;54.20;;;;;;5026226;28;20209;-86
2022/07/24 08:15:45;;;;;;;51.75;49.65;;;26.10;55.30;;;;;;5012148;28;20190;-87
2022/07/24 08:18:10;;;;;;;53.60;51.38;;;26.30;54.80;;;;;;5006225;28;20225;-86
2022/07/24 08:20:36;;;;;;;54.20;52.10;;;26.60;55.00;;;;;;5001736;28;20704;-86
2022/07/24 08:23:02;;;;;;;54.55;52.35;;;26.60;54.50;;;;;;5013762;28;20194;-87
2022/07/24 08:25:28;;;;;;;53.42;51.22;;;26.60;54.30;;;;;;5004432;28;20196;-87
2022/07/24 08:27:53;;;;;;;54.35;52.15;;;26.50;54.00;;;;;;5003698;28;20206;-86
2022/07/24 08:30:19;;;;;;;58.45;56.15;;;26.70;53.20;;;;;;5006129;28;20189;-86
2022/07/24 08:32:45;;;;;;;60.17;57.88;;;27.00;53.20;;;;;;5000447;28;20249;-87
2022/07/24 08:35:11;;;;;;;58.70;56.50;;;27.20;52.70;;;;;;5005870;28;20275;-86
2022/07/24 08:37:38;;;;;;;60.50;58.20;;;27.20;53.00;;;;;;5009227;28;20643;-86
2022/07/24 08:40:05;;;;;;;61.75;59.35;;;27.40;52.40;;;;;;5007677;28;20189;-86
2022/07/24 08:42:31;;;;;;;62.78;60.30;;;27.60;51.50;;;;;;5015915;28;20190;-87
2022/07/24 08:44:57;;;;;;;63.42;60.78;;;27.60;52.00;;;;;;5009992;28;20213;-85
2022/07/24 08:47:25;;;;;;;62.17;59.78;;;27.80;50.90;;;;;;5000094;28;20482;-85
2022/07/24 08:49:53;;;;;;;61.90;59.30;;;27.80;50.50;;;;;;5006357;28;20198;-86
2022/07/24 08:52:22;;;;;;;60.20;57.90;;;28.00;50.40;;;;;;4990616;28;20368;-85
2022/07/24 08:54:48;;;;;;;60.30;58.03;;;28.10;50.30;;;;;;5015476;28;20208;-85
2022/07/24 08:57:14;;;;;;;53.65;51.20;;;28.20;50.10;;;;;;5000797;28;20208;-86
2022/07/24 08:59:40;;;;;;;52.63;50.33;;;28.20;48.50;;;;;;5012408;28;20192;-88
2022/07/24 09:02:08;;;;;;;51.47;49.33;;;28.30;48.30;;;;;;5016959;28;20190;-88
2022/07/24 09:04:42;;;;;;;50.13;47.85;;;28.40;48.00;;;;;;5021565;28;20229;-87
2022/07/24 09:07:19;;;;;;;55.22;53.13;;;28.50;47.30;;;;;;4997068;28;20293;-88
2022/07/24 09:09:58;;;;;;;55.78;53.67;;;28.30;47.10;;;;;;5013481;28;20210;-87
2022/07/24 09:12:24;;;;;;;47.55;45.58;;;28.50;47.70;;;;;;4990865;28;20245;-86
2022/07/24 09:14:50;;;;;;;45.08;43.17;;;28.50;44.50;;;;;;4988813;28;20190;-87
2022/07/24 09:17:19;;;;;;;41.35;39.58;;;28.60;43.50;;;;;;5006850;28;20619;-85
2022/07/24 09:19:50;;;;;;;44.78;42.88;;;28.60;42.80;;;;;;5012949;28;20824;-87
2022/07/24 09:22:46;;;;;;;45.05;43.17;;;28.60;43.50;;;;;;5012733;28;20190;-84
2022/07/24 09:25:24;;;;;;;45.50;43.60;;;28.80;42.90;;;;;;4997218;28;20772;-86
2022/07/24 09:27:55;;;;;;;46.00;44.13;;;28.90;43.60;;;;;;5010190;28;20446;-86
2022/07/24 09:30:34;;;;;;;47.70;45.63;;;29.00;43.50;;;;;;5017605;28;20181;-86
2022/07/24 09:33:05;;;;;;;43.50;41.55;;;29.20;44.10;;;;;;5002697;28;20181;-86
2022/07/24 09:35:32;;;;;;;45.40;43.50;;;29.40;42.10;;;;;;5012956;28;20197;-85
2022/07/24 09:37:59;;;;;;;44.45;42.63;;;29.50;42.50;;;;;;5011580;28;20208;-86
2022/07/24 09:40:32;;;;;;;47.50;45.60;;;29.10;44.10;;;;;;5018495;28;20204;-87
2022/07/24 09:43:26;;;;;;;47.53;45.63;;;29.40;43.90;;;;;;5011934;28;20197;-87
2022/07/24 09:46:04;;;;;;;46.22;44.42;;;29.70;43.10;;;;;;5003585;28;20190;-86
2022/07/24 09:48:38;;;;;;;45.75;43.55;;;29.90;42.80;;;;;;4988839;28;20251;-86
2022/07/24 09:51:10;;;;;;;44.42;42.63;;;30.00;42.10;;;;;;5010340;28;20236;-88
2022/07/24 09:53:36;;;;;;;43.45;41.65;;;30.20;41.70;;;;;;5011234;28;20341;-85
2022/07/24 09:56:13;;;;;;;45.42;43.53;;;30.40;41.50;;;;;;5014056;28;20185;-86
2022/07/24 09:59:00;;;;;;;40.10;38.50;;;30.50;41.70;;;;;;5017721;28;20209;-86
2022/07/24 10:01:27;;;;;;;42.28;40.33;;;30.80;39.40;;;;;;5008784;28;20367;-86
2022/07/24 10:03:56;;;;;;;40.08;38.38;;;30.80;39.30;;;;;;4988269;28;20214;-86
2022/07/24 10:06:27;;;;;;;51.47;49.28;;;31.00;39.50;;;;;;5009636;28;20206;-86
2022/07/24 10:08:54;;;;;;;71.78;68.75;;;31.00;38.60;;;;;;5008166;28;20301;-86
2022/07/24 10:11:21;;;;;;;64.35;61.40;;;31.00;37.60;;;;;;5006682;28;20190;-86
2022/07/24 10:13:47;;;;;;;108.95;105.28;;;31.30;38.10;;;;;;5003403;28;20339;-86
2022/07/24 10:16:13;;;;;;;75.50;72.90;;;31.30;36.70;;;;;;5014324;28;20206;-87
2022/07/24 10:18:52;;;;;;;79.07;76.32;;;31.20;37.00;;;;;;5016946;28;20540;-86
2022/07/24 10:21:24;;;;;;;129.95;125.78;;;31.40;37.00;;;;;;5009416;28;20594;-88
2022/07/24 10:24:05;;;;;;;125.10;121.15;;;31.70;35.20;;;;;;4985562;28;20273;-87
2022/07/24 10:26:56;;;;;;;123.95;119.95;;;31.70;35.20;;;;;;5008784;28;20213;-86
2022/07/24 10:29:24;;;;;;;125.22;121.32;;;31.80;36.00;;;;;;5009361;28;20529;-88
2022/07/24 10:31:54;;;;;;;120.90;117.13;;;32.00;36.20;;;;;;5008398;28;20182;-87
2022/07/24 10:34:31;;;;;;;71.55;69.00;;;32.10;34.20;;;;;;4991009;28;20617;-86
2022/07/24 10:37:06;;;;;;;101.93;98.53;;;32.30;32.70;;;;;;5008502;28;20213;-85
2022/07/24 10:39:42;;;;;;;123.78;119.90;;;32.30;34.00;;;;;;5006222;28;20188;-87
2022/07/24 10:42:08;;;;;;;113.13;109.47;;;32.00;34.50;;;;;;5012917;28;20188;-85
2022/07/24 10:44:34;;;;;;;61.85;59.55;;;31.50;34.50;;;;;;5006362;28;20205;-86
2022/07/24 10:47:02;;;;;;;122.93;119.07;;;31.20;35.60;;;;;;5007196;28;20714;-86
2022/07/24 10:49:43;;;;;;;128.68;124.65;;;31.70;34.30;;;;;;5009996;28;20190;-86
2022/07/24 10:52:11;;;;;;;96.78;93.47;;;32.20;33.90;;;;;;5011632;28;20236;-87
2022/07/24 10:54:38;;;;;;;54.38;52.30;;;32.50;32.80;;;;;;5002945;28;20653;-87
2022/07/24 10:57:03;;;;;;;66.32;63.97;;;32.70;31.30;;;;;;4989373;28;20213;-87
2022/07/24 10:59:41;;;;;;;47.97;46.08;;;32.80;32.00;;;;;;4991108;28;20244;-87
2022/07/24 11:02:27;;;;;;;53.92;51.78;;;33.10;31.70;;;;;;5007483;28;20194;-86
2022/07/24 11:05:33;;;;;;;37.50;36.08;;;33.10;32.00;;;;;;5012622;28;20260;-87
2022/07/24 11:08:17;;;;;;;43.45;41.70;;;33.50;29.80;;;;;;4951463;28;20722;-88
2022/07/24 11:10:47;;;;;;;43.65;42.03;;;33.30;31.20;;;;;;4947033;29;20232;-87
2022/07/24 11:13:31;;;;;;;39.17;37.47;;;33.50;31.30;;;;;;4996402;28;20197;-86
2022/07/24 11:16:14;;;;;;;37.80;36.30;;;33.80;30.10;;;;;;5011137;28;20192;-87
2022/07/24 11:18:52;;;;;;;36.50;35.10;;;34.10;29.70;;;;;;4993171;28;20182;-87
2022/07/24 11:21:35;;;;;;;35.75;34.17;;;34.20;29.80;;;;;;4988876;28;20190;-87
2022/07/24 11:24:21;;;;;;;35.60;34.20;;;34.50;29.30;;;;;;5002044;28;20206;-87
2022/07/24 11:26:56;;;;;;;35.63;34.03;;;34.60;29.20;;;;;;5005583;28;20228;-87
2022/07/24 11:29:26;;;;;;;34.22;32.90;;;34.60;28.70;;;;;;4993540;28;20193;-87
2022/07/24 11:31:56;;;;;;;33.58;31.98;;;34.80;28.50;;;;;;5000054;28;20198;-87
2022/07/24 11:34:23;;;;;;;35.17;33.83;;;34.60;29.10;;;;;;5001719;28;20194;-88
2022/07/24 11:36:54;;;;;;;33.67;32.17;;;34.90;28.80;;;;;;5003438;28;20213;-87
2022/07/24 11:39:31;;;;;;;34.53;33.10;;;34.30;29.00;;;;;;5009052;28;20236;-86
2022/07/24 11:42:04;;;;;;;33.13;31.88;;;34.10;29.10;;;;;;4998343;28;20200;-86
2022/07/24 11:44:39;;;;;;;31.92;30.73;;;33.80;28.50;;;;;;4989259;28;20213;-86
2022/07/24 11:47:14;;;;;;;32.85;31.55;;;33.40;29.90;;;;;;5002057;28;20858;-86
2022/07/24 11:49:42;;;;;;;34.80;33.40;;;33.90;29.70;;;;;;4995254;28;20257;-87
2022/07/24 11:52:14;;;;;;;35.47;34.05;;;34.20;29.50;;;;;;5023253;28;21010;-86
2022/07/24 11:54:40;;;;;;;36.38;34.88;;;34.10;29.00;;;;;;5006719;28;20190;-86
2022/07/24 11:57:26;;;;;;;35.78;34.45;;;34.80;28.50;;;;;;5006393;28;20228;-87
2022/07/24 11:59:53;;;;;;;37.60;36.10;;;35.20;28.20;;;;;;5004375;28;20186;-87
2022/07/24 12:02:19;;;;;;;38.67;37.08;;;35.60;28.00;;;;;;5010839;28;20185;-88
2022/07/24 12:04:47;;;;;;;39.88;38.40;;;35.70;26.80;;;;;;5001441;28;20202;-86
2022/07/24 12:07:31;;;;;;;40.67;39.10;;;35.90;26.40;;;;;;5009506;28;20212;-88
2022/07/24 12:09:59;;;;;;;41.47;39.78;;;35.50;26.50;;;;;;5002829;28;20189;-88
2022/07/24 12:12:35;;;;;;;41.35;38.88;;;35.90;26.40;;;;;;5009283;28;20184;-88
2022/07/24 12:15:04;;;;;;;37.90;36.45;;;36.20;25.80;;;;;;4988836;28;20247;-87
2022/07/24 12:17:31;;;;;;;39.42;38.03;;;36.40;25.40;;;;;;5006556;28;20209;-87
2022/07/24 12:19:59;;;;;;;45.08;43.42;;;36.70;24.50;;;;;;5001156;28;20188;-87
2022/07/24 12:22:26;;;;;;;50.95;49.08;;;36.60;24.90;;;;;;5012372;28;20777;-87
2022/07/24 12:24:53;;;;;;;44.08;42.33;;;36.50;26.00;;;;;;4963159;28;20220;-87
2022/07/24 12:27:42;;;;;;;44.30;42.60;;;36.80;26.00;;;;;;4982588;28;20591;-87